createdAt,value
2018-04-18T00:02:17.492Z,99.90
2018-04-18T00:04:47.829Z,99.90
2018-04-18T00:07:18.343Z,99.90
2018-04-18T00:09:48.698Z,99.90
2018-04-18T00:12:19.161Z,99.90
2018-04-18T00:14:49.763Z,99.90
2018-04-18T00:17:20.185Z,99.90
2018-04-18T00:19:51.709Z,99.90
2018-04-18T00:22:23.420Z,99.90
2018-04-18T00:24:53.868Z,99.90
2018-04-18T00:27:24.040Z,99.90
2018-04-18T00:29:54.140Z,99.90
2018-04-18T00:32:24.392Z,99.90
2018-04-18T00:34:55.380Z,99.90
2018-04-18T00:37:25.734Z,99.90
2018-04-18T00:39:55.861Z,99.90
2018-04-18T00:42:26.083Z,99.90
2018-04-18T00:44:56.256Z,99.90
2018-04-18T00:47:26.487Z,99.90
2018-04-18T00:49:57.361Z,99.90
2018-04-18T00:52:28.548Z,99.90
2018-04-18T00:54:59.877Z,99.90
2018-04-18T00:57:32.003Z,99.90
2018-04-18T01:00:02.340Z,99.90
2018-04-18T01:02:32.511Z,99.90
2018-04-18T01:05:02.644Z,99.90
2018-04-18T01:07:32.876Z,99.90
2018-04-18T01:10:03.306Z,99.90
2018-04-18T01:12:35.755Z,99.90
2018-04-18T01:15:06.677Z,99.90
2018-04-18T01:17:36.981Z,99.90
2018-04-18T01:20:07.919Z,99.90
2018-04-18T01:22:38.296Z,99.90
2018-04-18T01:25:09.243Z,98.00
2018-04-18T01:27:39.130Z,98.30
2018-04-18T01:30:10.116Z,99.90
2018-04-18T01:32:40.371Z,99.90
2018-04-18T01:35:10.548Z,99.90
2018-04-18T01:37:40.693Z,99.90
2018-04-18T01:40:10.853Z,96.90
2018-04-18T01:42:41.035Z,93.60
2018-04-18T01:45:10.974Z,94.20
2018-04-18T01:47:41.216Z,91.80
2018-04-18T01:50:13.591Z,86.20
2018-04-18T01:52:43.710Z,89.00
2018-04-18T01:55:13.886Z,84.10
2018-04-18T01:57:44.295Z,82.00
2018-04-18T02:00:14.504Z,86.10
2018-04-18T02:02:44.685Z,87.80
2018-04-18T02:05:15.108Z,85.10
2018-04-18T02:07:45.015Z,86.40
2018-04-18T02:10:14.956Z,85.80
2018-04-18T02:12:45.948Z,78.10
2018-04-18T02:15:16.400Z,78.80
2018-04-18T02:17:46.574Z,76.20
2018-04-18T02:20:16.834Z,75.30
2018-04-18T02:22:47.110Z,75.40
2018-04-18T02:25:16.915Z,25.30
2018-04-18T02:27:47.283Z,21.90
2018-04-18T02:30:17.483Z,19.80
2018-04-18T02:32:48.584Z,21.80
2018-04-18T02:35:18.511Z,22.90
2018-04-18T02:37:49.723Z,22.10
2018-04-18T02:40:19.871Z,21.10
2018-04-18T02:42:50.043Z,20.90
2018-04-18T02:45:20.931Z,21.90
2018-04-18T02:47:52.132Z,18.90
2018-04-18T02:50:22.221Z,23.60
2018-04-18T02:52:52.337Z,18.50
2018-04-18T02:55:22.883Z,16.40
2018-04-18T02:57:53.034Z,5.30
2018-04-18T03:00:23.216Z,3.20
2018-04-18T03:02:54.128Z,1.00
2018-04-18T03:05:24.335Z,1.00
2018-04-18T03:07:55.255Z,1.00
2018-04-18T03:10:25.827Z,1.00
2018-04-18T03:12:56.083Z,1.00
2018-04-18T03:15:26.293Z,1.00
2018-04-18T03:17:56.790Z,1.00
2018-04-18T03:20:26.699Z,1.00
2018-04-18T03:22:56.843Z,1.00
2018-04-18T03:25:26.972Z,1.00
2018-04-18T03:27:57.111Z,1.00
2018-04-18T03:30:27.301Z,1.00
2018-04-18T03:32:58.484Z,1.00
2018-04-18T03:35:28.619Z,1.00
2018-04-18T03:37:58.772Z,1.00
2018-04-18T03:40:29.113Z,1.00
2018-04-18T03:42:59.561Z,1.00
2018-04-18T03:45:30.184Z,1.00
2018-04-18T03:48:00.137Z,1.00
2018-04-18T03:50:30.289Z,1.00
2018-04-18T03:53:00.523Z,1.00
2018-04-18T03:55:30.680Z,1.00
2018-04-18T03:58:01.598Z,1.00
2018-04-18T04:00:31.756Z,1.00
2018-04-18T04:03:02.679Z,1.00
2018-04-18T04:05:33.615Z,1.00
2018-04-18T04:08:03.773Z,1.00
2018-04-18T04:10:34.523Z,1.00
2018-04-18T04:13:04.429Z,1.00
2018-04-18T04:15:34.669Z,1.00
2018-04-18T04:18:21.622Z,1.00
2018-04-18T04:21:08.189Z,1.00
2018-04-18T04:23:55.144Z,1.00
2018-04-18T04:26:26.404Z,1.00
2018-04-18T04:28:56.830Z,1.00
2018-04-18T04:31:27.144Z,1.00
2018-04-18T04:33:57.286Z,1.00
2018-04-18T04:36:27.551Z,1.00
2018-04-18T04:38:57.705Z,1.00
2018-04-18T04:41:27.837Z,1.00
2018-04-18T04:43:58.002Z,1.00
2018-04-18T04:46:27.929Z,1.00
2018-04-18T04:48:58.110Z,1.00
2018-04-18T04:51:28.425Z,1.00
2018-04-18T04:53:58.904Z,1.00
2018-04-18T04:56:29.336Z,99.90
2018-04-18T04:58:59.714Z,99.90
2018-04-18T05:01:30.109Z,99.90
2018-04-18T05:04:00.294Z,99.90
2018-04-18T05:06:31.040Z,99.90
2018-04-18T05:09:01.473Z,99.90
2018-04-18T05:11:32.591Z,99.90
2018-04-18T05:14:03.037Z,99.90
2018-04-18T05:16:33.270Z,99.90
2018-04-18T05:19:03.466Z,99.90
2018-04-18T05:21:33.636Z,99.90
2018-04-18T05:24:04.369Z,99.90
2018-04-18T05:26:34.587Z,99.90
2018-04-18T05:29:05.060Z,99.90
2018-04-18T05:31:35.298Z,99.90
2018-04-18T05:34:05.676Z,99.90
2018-04-18T05:36:35.814Z,99.90
2018-04-18T05:39:05.171Z,99.90
2018-04-18T05:41:35.324Z,99.90
2018-04-18T05:44:05.923Z,99.90
2018-04-18T05:46:36.235Z,99.90
2018-04-18T05:49:07.146Z,99.90
2018-04-18T05:51:37.325Z,99.90
2018-04-18T05:54:08.035Z,99.90
2018-04-18T05:56:38.266Z,99.90
2018-04-18T05:59:08.956Z,99.90
2018-04-18T06:01:39.229Z,99.90
2018-04-18T06:04:09.298Z,99.90
2018-04-18T06:06:40.049Z,99.90
2018-04-18T06:09:10.339Z,99.90
2018-04-18T06:11:41.535Z,99.90
2018-04-18T06:14:11.917Z,99.90
2018-04-18T06:16:42.774Z,99.90
2018-04-18T06:19:13.737Z,99.90
2018-04-18T06:21:45.421Z,1.00
2018-04-18T06:24:16.170Z,1.00
2018-04-18T06:26:46.986Z,1.00
2018-04-18T06:29:17.669Z,1.00
2018-04-18T06:35:10.448Z,1.00
2018-04-18T06:37:41.224Z,1.00
2018-04-18T06:40:12.039Z,1.00
2018-04-18T06:42:43.568Z,1.00
2018-04-18T06:45:14.299Z,1.00
2018-04-18T06:47:45.300Z,1.00
2018-04-18T06:50:16.013Z,1.00
2018-04-18T06:52:46.746Z,1.00
2018-04-18T06:55:17.468Z,1.00
2018-04-18T06:57:48.185Z,1.00
2018-04-18T07:00:19.123Z,1.00
2018-04-18T07:02:49.879Z,1.00
2018-04-18T07:05:20.642Z,1.00
2018-04-18T07:07:51.394Z,1.00
2018-04-18T07:10:22.335Z,1.00
2018-04-18T07:12:53.533Z,1.00
2018-04-18T07:15:24.288Z,1.00
2018-04-18T07:17:55.175Z,1.00
2018-04-18T07:20:25.902Z,1.00
2018-04-18T07:22:56.611Z,1.00
2018-04-18T07:25:28.090Z,1.00
2018-04-18T07:27:59.080Z,1.00
2018-04-18T07:30:29.613Z,1.00
2018-04-18T07:33:00.366Z,1.00
2018-04-18T07:35:31.901Z,1.00
2018-04-18T07:38:02.194Z,1.00
2018-04-18T07:40:33.344Z,1.00
2018-04-18T07:43:04.433Z,1.00
2018-04-18T07:45:35.161Z,1.00
2018-04-18T07:48:06.124Z,1.00
2018-04-18T07:50:36.902Z,1.00
2018-04-18T07:53:08.731Z,1.00
2018-04-18T07:55:39.732Z,1.00
2018-04-18T07:58:10.251Z,1.00
2018-04-18T08:00:41.739Z,1.00
2018-04-18T08:03:12.488Z,1.00
2018-04-18T08:05:44.103Z,1.00
2018-04-18T08:08:14.834Z,99.90
2018-04-18T08:10:46.538Z,99.90
2018-04-18T08:13:18.326Z,99.90
2018-04-18T08:15:49.023Z,99.90
2018-04-18T08:18:20.027Z,99.90
2018-04-18T08:20:51.012Z,99.90
2018-04-18T08:23:21.495Z,99.90
2018-04-18T08:25:52.211Z,99.90
2018-04-18T08:28:30.319Z,99.90
2018-04-18T08:31:08.959Z,99.90
2018-04-18T08:33:39.703Z,99.90
2018-04-18T08:36:10.469Z,99.90
2018-04-18T08:38:41.363Z,99.90
2018-04-18T08:41:12.397Z,99.90
2018-04-18T08:43:44.223Z,99.90
2018-04-18T08:46:15.145Z,99.90
2018-04-18T08:58:35.903Z,99.90
2018-04-18T09:17:54.057Z,99.90
2018-04-18T10:04:58.891Z,99.90
2018-04-18T10:10:50.428Z,99.90
2018-04-18T10:29:22.151Z,99.90
2018-04-18T10:47:41.442Z,99.90
2018-04-18T10:50:14.627Z,99.90
2018-04-18T10:59:30.122Z,99.90
2018-04-18T11:11:46.027Z,47.80
2018-04-18T12:20:23.079Z,1.00
2018-04-18T12:22:53.691Z,1.00
2018-04-18T12:25:23.993Z,1.00
2018-04-18T12:27:54.395Z,1.00
2018-04-18T12:30:26.022Z,1.00
2018-04-18T12:32:56.565Z,1.00
2018-04-18T12:35:27.232Z,1.00
2018-04-18T12:37:57.888Z,1.00
2018-04-18T12:40:43.500Z,1.00
2018-04-18T12:43:14.161Z,1.00
2018-04-18T12:46:07.539Z,1.00
2018-04-18T12:48:42.526Z,1.00
2018-04-18T12:54:27.483Z,1.00
2018-04-18T12:59:58.633Z,1.00
2018-04-18T13:21:39.929Z,99.90
2018-04-18T13:30:43.307Z,99.90
2018-04-18T13:58:28.198Z,99.90
2018-04-18T14:04:09.168Z,99.90
2018-04-18T14:51:37.834Z,99.90
2018-04-18T15:03:54.863Z,99.90
2018-04-18T15:06:40.781Z,99.90
2018-04-18T15:15:40.207Z,99.90
2018-04-18T15:18:11.499Z,99.90
2018-04-18T15:30:02.952Z,99.90
2018-04-18T15:32:46.901Z,99.90
2018-04-18T15:35:37.412Z,99.90
2018-04-18T15:38:12.738Z,99.90
2018-04-18T15:40:59.160Z,99.90
2018-04-18T15:46:40.149Z,99.90
2018-04-18T15:49:39.886Z,99.90
2018-04-18T15:52:24.487Z,99.90
2018-04-18T15:58:12.386Z,99.90
2018-04-18T16:06:40.663Z,99.90
2018-04-18T16:12:24.066Z,99.90
2018-04-18T16:14:56.446Z,99.90
2018-04-18T16:17:27.141Z,99.90
2018-04-18T16:23:31.266Z,99.90
2018-04-18T16:26:03.180Z,99.90
2018-04-18T16:28:37.612Z,99.90
2018-04-18T16:31:11.023Z,99.90
2018-04-18T16:33:51.253Z,99.90
2018-04-18T16:36:37.495Z,99.90
2018-04-18T16:39:08.906Z,99.90
2018-04-18T16:41:39.358Z,99.90
2018-04-18T16:44:11.969Z,99.90
2018-04-18T16:47:09.798Z,99.90
2018-04-18T16:49:41.845Z,99.90
2018-04-18T16:52:12.528Z,99.90
2018-04-18T16:54:45.587Z,99.90
2018-04-18T16:57:16.331Z,99.90
2018-04-18T17:00:07.629Z,99.90
2018-04-18T17:02:39.279Z,99.90
2018-04-18T17:05:13.653Z,99.90
2018-04-18T17:07:47.584Z,99.90
2018-04-18T17:10:28.465Z,99.90
2018-04-18T17:16:01.223Z,99.90
2018-04-18T17:18:37.411Z,99.90
2018-04-18T17:21:38.440Z,99.90
2018-04-18T17:24:36.338Z,99.90
2018-04-18T17:27:16.817Z,99.90
2018-04-18T17:30:03.452Z,99.90
2018-04-18T17:32:44.829Z,99.90
2018-04-18T17:35:37.865Z,99.90
2018-04-18T17:38:11.229Z,99.90
2018-04-18T17:46:24.460Z,99.90
2018-04-18T17:48:54.815Z,99.90
2018-04-18T17:51:25.277Z,99.90
2018-04-18T17:57:08.293Z,99.90
2018-04-18T17:59:38.477Z,99.90
2018-04-18T18:02:08.634Z,99.90
2018-04-18T18:08:09.434Z,99.90
2018-04-18T18:10:41.726Z,99.90
2018-04-18T18:13:12.633Z,99.90
2018-04-18T18:36:56.786Z,99.90
2018-04-18T18:39:27.176Z,99.90
2018-04-18T18:41:57.302Z,99.90
2018-04-18T18:44:36.932Z,99.90
2018-04-18T18:49:52.437Z,99.90
2018-04-18T18:52:22.670Z,99.90
2018-04-18T18:54:52.850Z,99.90
2018-04-18T18:57:22.997Z,99.90
2018-04-18T18:59:57.361Z,99.90
2018-04-18T19:02:28.776Z,99.90
2018-04-18T19:04:58.867Z,99.90
2018-04-18T19:07:28.981Z,99.90
2018-04-18T19:09:59.840Z,99.90
2018-04-18T19:12:31.150Z,99.90
2018-04-18T19:15:02.641Z,99.90
2018-04-18T19:17:33.544Z,99.90
2018-04-18T19:20:03.732Z,99.90
2018-04-18T19:22:40.537Z,99.90
2018-04-18T19:25:10.936Z,99.90
2018-04-18T19:27:44.850Z,99.90
2018-04-18T19:30:19.267Z,99.90
2018-04-18T19:36:01.312Z,99.90
2018-04-18T19:38:42.412Z,99.90
2018-04-18T19:41:37.770Z,99.90
2018-04-18T19:57:09.011Z,99.90
2018-04-18T20:15:23.124Z,99.90
2018-04-18T20:17:53.290Z,99.90
2018-04-18T20:20:31.522Z,99.90
2018-04-18T20:23:03.998Z,99.90
2018-04-18T20:25:37.986Z,99.90
2018-04-18T20:34:11.641Z,99.90
2018-04-18T20:36:52.712Z,99.90
2018-04-18T20:39:22.948Z,99.90
2018-04-18T20:41:54.934Z,99.90
2018-04-18T20:44:25.231Z,99.90
2018-04-18T20:46:55.422Z,99.90
2018-04-18T20:49:25.589Z,99.90
2018-04-18T20:51:56.035Z,99.90
2018-04-18T20:54:26.075Z,99.90
2018-04-18T20:56:56.221Z,99.90
2018-04-18T20:59:26.320Z,99.90
2018-04-18T21:01:57.361Z,99.90
2018-04-18T21:04:28.271Z,99.90
2018-04-18T21:06:58.462Z,99.90
2018-04-18T21:09:28.662Z,99.90
2018-04-18T21:11:58.852Z,99.90
2018-04-18T21:14:29.411Z,99.90
2018-04-18T21:17:00.318Z,99.90
2018-04-18T21:19:30.449Z,99.90
2018-04-18T21:22:01.433Z,99.90
2018-04-18T21:24:31.642Z,99.90
2018-04-18T21:27:02.563Z,99.90
2018-04-18T21:29:32.727Z,99.90
2018-04-18T21:32:03.067Z,99.90
2018-04-18T21:34:33.573Z,99.90
2018-04-18T21:37:03.741Z,99.90
2018-04-18T21:39:33.958Z,99.90
2018-04-18T21:42:04.135Z,99.90
2018-04-18T21:44:34.317Z,99.90
2018-04-18T21:47:04.523Z,1.40
2018-04-18T21:49:34.694Z,1.00
2018-04-18T21:52:04.917Z,1.00
2018-04-18T21:54:35.057Z,1.00
2018-04-18T21:57:05.197Z,1.00
2018-04-18T21:59:35.460Z,1.00
2018-04-18T22:02:05.626Z,1.00
2018-04-18T22:04:35.834Z,1.00
2018-04-18T22:07:05.671Z,1.00
2018-04-18T22:09:36.339Z,1.00
2018-04-18T22:12:08.072Z,1.00
2018-04-18T22:14:38.450Z,1.00
2018-04-18T22:17:08.602Z,1.00
2018-04-18T22:19:39.018Z,1.00
2018-04-18T22:22:08.937Z,1.00
2018-04-18T22:24:39.084Z,1.00
2018-04-18T22:27:09.175Z,1.00
2018-04-18T22:35:51.732Z,1.00
2018-04-18T22:38:21.869Z,1.00
2018-04-18T22:40:51.998Z,1.00
2018-04-18T22:43:22.115Z,1.00
2018-04-18T22:45:52.269Z,1.00
2018-04-18T22:48:22.421Z,1.00
2018-04-18T22:50:52.809Z,1.00
2018-04-18T22:53:23.660Z,1.00
2018-04-18T22:55:54.567Z,1.00
2018-04-18T22:58:24.669Z,1.00
2018-04-18T23:00:55.051Z,1.00
2018-04-18T23:03:24.921Z,1.00
2018-04-18T23:05:55.088Z,1.00
2018-04-18T23:08:25.277Z,1.00
2018-04-18T23:10:55.414Z,1.00
2018-04-18T23:13:26.317Z,1.00
2018-04-18T23:15:56.728Z,1.00
2018-04-18T23:18:27.616Z,1.00
2018-04-18T23:20:57.744Z,1.00
2018-04-18T23:23:28.706Z,1.00
2018-04-18T23:25:59.700Z,1.00
2018-04-18T23:28:30.615Z,1.00
2018-04-18T23:31:00.808Z,1.00
2018-04-18T23:33:31.212Z,1.00
2018-04-18T23:36:01.428Z,1.00
2018-04-18T23:38:32.279Z,1.00
2018-04-18T23:41:03.154Z,1.00
2018-04-18T23:43:33.259Z,1.00
2018-04-18T23:46:03.561Z,1.00
2018-04-18T23:48:33.679Z,1.00
2018-04-18T23:51:03.963Z,1.00
2018-04-18T23:53:34.063Z,1.00
2018-04-18T23:56:04.939Z,1.00
2018-04-18T23:58:35.042Z,1.00
